sensor_id;sensor_type;location;lat;lon;timestamp;P1;durP1;ratioP1;P2;durP2;ratioP2
11263;SDS011;5689;48.798;9.070;2024-03-02T00:01:08;0.27;;;0.27;;
11263;SDS011;5689;48.798;9.070;2024-03-02T00:03:38;0.20;;;0.20;;
11263;SDS011;5689;48.798;9.070;2024-03-02T00:06:07;0.30;;;0.30;;
11263;SDS011;5689;48.798;9.070;2024-03-02T00:08:35;0.20;;;0.20;;
11263;SDS011;5689;48.798;9.070;2024-03-02T00:11:03;0.23;;;0.23;;
11263;SDS011;5689;48.798;9.070;2024-03-02T00:13:31;0.30;;;0.30;;
11263;SDS011;5689;48.798;9.070;2024-03-02T00:16:01;0.20;;;0.20;;
11263;SDS011;5689;48.798;9.070;2024-03-02T00:18:33;0.20;;;0.20;;
11263;SDS011;5689;48.798;9.070;2024-03-02T00:21:03;0.30;;;0.30;;
11263;SDS011;5689;48.798;9.070;2024-03-02T00:23:35;0.23;;;0.23;;
11263;SDS011;5689;48.798;9.070;2024-03-02T00:26:05;0.30;;;0.30;;
11263;SDS011;5689;48.798;9.070;2024-03-02T00:28:35;0.20;;;0.20;;
11263;SDS011;5689;48.798;9.070;2024-03-02T00:31:04;0.23;;;0.23;;
11263;SDS011;5689;48.798;9.070;2024-03-02T00:33:36;0.20;;;0.20;;
11263;SDS011;5689;48.798;9.070;2024-03-02T00:36:08;0.30;;;0.30;;
11263;SDS011;5689;48.798;9.070;2024-03-02T00:38:42;0.40;;;0.40;;
11263;SDS011;5689;48.798;9.070;2024-03-02T00:41:15;0.20;;;0.20;;
11263;SDS011;5689;48.798;9.070;2024-03-02T00:43:56;0.30;;;0.30;;
11263;SDS011;5689;48.798;9.070;2024-03-02T00:46:27;0.30;;;0.30;;
11263;SDS011;5689;48.798;9.070;2024-03-02T00:48:59;0.20;;;0.20;;
11263;SDS011;5689;48.798;9.070;2024-03-02T00:51:29;0.20;;;0.20;;
11263;SDS011;5689;48.798;9.070;2024-03-02T00:54:00;0.30;;;0.30;;
11263;SDS011;5689;48.798;9.070;2024-03-02T00:56:30;0.30;;;0.30;;
11263;SDS011;5689;48.798;9.070;2024-03-02T00:58:59;0.20;;;0.20;;
11263;SDS011;5689;48.798;9.070;2024-03-02T01:01:27;0.20;;;0.20;;
11263;SDS011;5689;48.798;9.070;2024-03-02T01:03:56;0.20;;;0.20;;
11263;SDS011;5689;48.798;9.070;2024-03-02T01:06:26;0.20;;;0.20;;
11263;SDS011;5689;48.798;9.070;2024-03-02T01:08:55;0.20;;;0.20;;
11263;SDS011;5689;48.798;9.070;2024-03-02T01:11:23;0.20;;;0.20;;
11263;SDS011;5689;48.798;9.070;2024-03-02T01:13:51;0.20;;;0.20;;
11263;SDS011;5689;48.798;9.070;2024-03-02T01:16:19;0.30;;;0.30;;
11263;SDS011;5689;48.798;9.070;2024-03-02T01:18:48;0.30;;;0.30;;
11263;SDS011;5689;48.798;9.070;2024-03-02T01:21:16;0.30;;;0.30;;
11263;SDS011;5689;48.798;9.070;2024-03-02T01:23:46;0.20;;;0.20;;
11263;SDS011;5689;48.798;9.070;2024-03-02T01:26:14;0.40;;;0.40;;
11263;SDS011;5689;48.798;9.070;2024-03-02T01:28:42;0.30;;;0.30;;
11263;SDS011;5689;48.798;9.070;2024-03-02T01:31:10;0.23;;;0.23;;
11263;SDS011;5689;48.798;9.070;2024-03-02T01:33:39;0.30;;;0.30;;
11263;SDS011;5689;48.798;9.070;2024-03-02T01:36:07;0.30;;;0.30;;
11263;SDS011;5689;48.798;9.070;2024-03-02T01:38:35;0.20;;;0.20;;
11263;SDS011;5689;48.798;9.070;2024-03-02T01:41:05;0.30;;;0.30;;
11263;SDS011;5689;48.798;9.070;2024-03-02T01:43:33;0.30;;;0.30;;
11263;SDS011;5689;48.798;9.070;2024-03-02T01:46:03;0.40;;;0.40;;
11263;SDS011;5689;48.798;9.070;2024-03-02T01:48:31;0.47;;;0.47;;
11263;SDS011;5689;48.798;9.070;2024-03-02T01:51:00;0.30;;;0.30;;
11263;SDS011;5689;48.798;9.070;2024-03-02T01:53:28;0.30;;;0.30;;
11263;SDS011;5689;48.798;9.070;2024-03-02T01:55:58;0.30;;;0.30;;
11263;SDS011;5689;48.798;9.070;2024-03-02T01:58:29;0.30;;;0.30;;
11263;SDS011;5689;48.798;9.070;2024-03-02T02:00:57;0.30;;;0.30;;
11263;SDS011;5689;48.798;9.070;2024-03-02T02:03:26;0.40;;;0.40;;
11263;SDS011;5689;48.798;9.070;2024-03-02T02:05:54;0.30;;;0.30;;
11263;SDS011;5689;48.798;9.070;2024-03-02T02:08:22;0.30;;;0.30;;
11263;SDS011;5689;48.798;9.070;2024-03-02T02:10:51;0.30;;;0.30;;
11263;SDS011;5689;48.798;9.070;2024-03-02T02:13:19;0.30;;;0.30;;
11263;SDS011;5689;48.798;9.070;2024-03-02T02:15:48;0.27;;;0.27;;
11263;SDS011;5689;48.798;9.070;2024-03-02T02:18:16;0.30;;;0.30;;
11263;SDS011;5689;48.798;9.070;2024-03-02T02:20:44;0.33;;;0.33;;
11263;SDS011;5689;48.798;9.070;2024-03-02T02:23:14;0.27;;;0.27;;
11263;SDS011;5689;48.798;9.070;2024-03-02T02:25:42;0.30;;;0.30;;
11263;SDS011;5689;48.798;9.070;2024-03-02T02:28:10;0.20;;;0.20;;
11263;SDS011;5689;48.798;9.070;2024-03-02T02:30:38;0.20;;;0.20;;
11263;SDS011;5689;48.798;9.070;2024-03-02T02:33:06;0.20;;;0.20;;
11263;SDS011;5689;48.798;9.070;2024-03-02T02:35:35;0.30;;;0.30;;
11263;SDS011;5689;48.798;9.070;2024-03-02T02:38:03;0.20;;;0.20;;
11263;SDS011;5689;48.798;9.070;2024-03-02T02:40:34;0.30;;;0.30;;
11263;SDS011;5689;48.798;9.070;2024-03-02T02:43:02;0.20;;;0.20;;
11263;SDS011;5689;48.798;9.070;2024-03-02T02:45:31;0.20;;;0.20;;
11263;SDS011;5689;48.798;9.070;2024-03-02T02:47:59;0.20;;;0.20;;
11263;SDS011;5689;48.798;9.070;2024-03-02T02:50:29;0.30;;;0.30;;
11263;SDS011;5689;48.798;9.070;2024-03-02T02:52:57;0.30;;;0.30;;
11263;SDS011;5689;48.798;9.070;2024-03-02T02:55:25;0.30;;;0.30;;
11263;SDS011;5689;48.798;9.070;2024-03-02T02:57:54;0.20;;;0.20;;
11263;SDS011;5689;48.798;9.070;2024-03-02T03:00:23;0.20;;;0.20;;
11263;SDS011;5689;48.798;9.070;2024-03-02T03:02:51;0.30;;;0.30;;
11263;SDS011;5689;48.798;9.070;2024-03-02T03:05:19;0.30;;;0.30;;
11263;SDS011;5689;48.798;9.070;2024-03-02T03:07:48;0.30;;;0.30;;
11263;SDS011;5689;48.798;9.070;2024-03-02T03:10:16;0.33;;;0.33;;
11263;SDS011;5689;48.798;9.070;2024-03-02T03:12:45;0.30;;;0.30;;
11263;SDS011;5689;48.798;9.070;2024-03-02T03:15:14;0.30;;;0.30;;
11263;SDS011;5689;48.798;9.070;2024-03-02T03:17:43;0.20;;;0.20;;
11263;SDS011;5689;48.798;9.070;2024-03-02T03:20:13;0.20;;;0.20;;
11263;SDS011;5689;48.798;9.070;2024-03-02T03:22:42;0.30;;;0.30;;
11263;SDS011;5689;48.798;9.070;2024-03-02T03:25:10;0.20;;;0.20;;
11263;SDS011;5689;48.798;9.070;2024-03-02T03:27:38;0.30;;;0.30;;
11263;SDS011;5689;48.798;9.070;2024-03-02T03:30:07;0.40;;;0.40;;
11263;SDS011;5689;48.798;9.070;2024-03-02T03:32:37;0.20;;;0.20;;
11263;SDS011;5689;48.798;9.070;2024-03-02T03:35:05;0.20;;;0.20;;
11263;SDS011;5689;48.798;9.070;2024-03-02T03:37:35;0.30;;;0.30;;
11263;SDS011;5689;48.798;9.070;2024-03-02T03:40:03;0.20;;;0.20;;
11263;SDS011;5689;48.798;9.070;2024-03-02T03:42:36;0.30;;;0.30;;
11263;SDS011;5689;48.798;9.070;2024-03-02T03:45:05;0.40;;;0.40;;
11263;SDS011;5689;48.798;9.070;2024-03-02T03:47:34;0.20;;;0.20;;
11263;SDS011;5689;48.798;9.070;2024-03-02T03:50:04;0.40;;;0.40;;
11263;SDS011;5689;48.798;9.070;2024-03-02T03:52:33;0.30;;;0.30;;
11263;SDS011;5689;48.798;9.070;2024-03-02T03:55:01;0.23;;;0.23;;
11263;SDS011;5689;48.798;9.070;2024-03-02T03:57:31;0.30;;;0.30;;
11263;SDS011;5689;48.798;9.070;2024-03-02T03:59:59;0.20;;;0.20;;
11263;SDS011;5689;48.798;9.070;2024-03-02T04:02:37;0.30;;;0.30;;
11263;SDS011;5689;48.798;9.070;2024-03-02T04:05:07;0.20;;;0.20;;
11263;SDS011;5689;48.798;9.070;2024-03-02T04:07:37;0.30;;;0.30;;
11263;SDS011;5689;48.798;9.070;2024-03-02T04:10:07;0.23;;;0.23;;
11263;SDS011;5689;48.798;9.070;2024-03-02T04:12:36;0.30;;;0.30;;
11263;SDS011;5689;48.798;9.070;2024-03-02T04:15:05;0.30;;;0.30;;
11263;SDS011;5689;48.798;9.070;2024-03-02T04:17:33;0.30;;;0.30;;
11263;SDS011;5689;48.798;9.070;2024-03-02T04:20:03;0.30;;;0.30;;
11263;SDS011;5689;48.798;9.070;2024-03-02T04:22:34;0.30;;;0.30;;
11263;SDS011;5689;48.798;9.070;2024-03-02T04:25:02;0.27;;;0.27;;
11263;SDS011;5689;48.798;9.070;2024-03-02T04:27:33;0.37;;;0.37;;
11263;SDS011;5689;48.798;9.070;2024-03-02T04:30:02;0.30;;;0.30;;
11263;SDS011;5689;48.798;9.070;2024-03-02T04:32:32;0.20;;;0.20;;
11263;SDS011;5689;48.798;9.070;2024-03-02T04:35:00;0.30;;;0.30;;
11263;SDS011;5689;48.798;9.070;2024-03-02T04:37:28;0.20;;;0.20;;
11263;SDS011;5689;48.798;9.070;2024-03-02T04:39:58;0.20;;;0.20;;
11263;SDS011;5689;48.798;9.070;2024-03-02T04:42:26;0.20;;;0.20;;
11263;SDS011;5689;48.798;9.070;2024-03-02T04:44:55;0.30;;;0.30;;
11263;SDS011;5689;48.798;9.070;2024-03-02T04:47:23;0.30;;;0.30;;
11263;SDS011;5689;48.798;9.070;2024-03-02T04:49:52;0.20;;;0.20;;
11263;SDS011;5689;48.798;9.070;2024-03-02T04:52:20;0.30;;;0.30;;
11263;SDS011;5689;48.798;9.070;2024-03-02T04:54:48;0.30;;;0.30;;
11263;SDS011;5689;48.798;9.070;2024-03-02T04:57:35;0.20;;;0.20;;
11263;SDS011;5689;48.798;9.070;2024-03-02T05:00:04;0.30;;;0.30;;
11263;SDS011;5689;48.798;9.070;2024-03-02T05:02:33;0.30;;;0.30;;
11263;SDS011;5689;48.798;9.070;2024-03-02T05:05:01;0.30;;;0.30;;
11263;SDS011;5689;48.798;9.070;2024-03-02T05:07:30;0.20;;;0.20;;
11263;SDS011;5689;48.798;9.070;2024-03-02T05:09:58;0.20;;;0.20;;
11263;SDS011;5689;48.798;9.070;2024-03-02T05:12:26;0.30;;;0.30;;
11263;SDS011;5689;48.798;9.070;2024-03-02T05:15:23;0.30;;;0.30;;
11263;SDS011;5689;48.798;9.070;2024-03-02T05:17:51;0.30;;;0.30;;
11263;SDS011;5689;48.798;9.070;2024-03-02T05:20:19;0.30;;;0.30;;
11263;SDS011;5689;48.798;9.070;2024-03-02T05:22:47;0.20;;;0.20;;
11263;SDS011;5689;48.798;9.070;2024-03-02T05:25:16;0.20;;;0.20;;
11263;SDS011;5689;48.798;9.070;2024-03-02T05:27:44;0.30;;;0.30;;
11263;SDS011;5689;48.798;9.070;2024-03-02T05:30:13;0.20;;;0.20;;
11263;SDS011;5689;48.798;9.070;2024-03-02T05:32:42;0.33;;;0.33;;
11263;SDS011;5689;48.798;9.070;2024-03-02T05:35:10;0.30;;;0.30;;
11263;SDS011;5689;48.798;9.070;2024-03-02T05:37:39;0.30;;;0.30;;
11263;SDS011;5689;48.798;9.070;2024-03-02T05:40:08;0.30;;;0.30;;
11263;SDS011;5689;48.798;9.070;2024-03-02T05:42:37;0.30;;;0.30;;
11263;SDS011;5689;48.798;9.070;2024-03-02T05:45:07;0.23;;;0.23;;
11263;SDS011;5689;48.798;9.070;2024-03-02T05:47:36;0.30;;;0.30;;
11263;SDS011;5689;48.798;9.070;2024-03-02T05:50:06;0.20;;;0.20;;
11263;SDS011;5689;48.798;9.070;2024-03-02T05:52:35;0.40;;;0.40;;
11263;SDS011;5689;48.798;9.070;2024-03-02T05:55:03;0.30;;;0.30;;
11263;SDS011;5689;48.798;9.070;2024-03-02T05:57:32;0.30;;;0.30;;
11263;SDS011;5689;48.798;9.070;2024-03-02T06:00:14;0.30;;;0.30;;
11263;SDS011;5689;48.798;9.070;2024-03-02T06:02:43;0.30;;;0.30;;
11263;SDS011;5689;48.798;9.070;2024-03-02T06:05:13;0.23;;;0.23;;
11263;SDS011;5689;48.798;9.070;2024-03-02T06:07:42;0.30;;;0.30;;
11263;SDS011;5689;48.798;9.070;2024-03-02T06:10:11;0.20;;;0.20;;
11263;SDS011;5689;48.798;9.070;2024-03-02T06:12:39;0.40;;;0.40;;
11263;SDS011;5689;48.798;9.070;2024-03-02T06:15:08;0.20;;;0.20;;
11263;SDS011;5689;48.798;9.070;2024-03-02T06:17:36;0.30;;;0.30;;
11263;SDS011;5689;48.798;9.070;2024-03-02T06:20:05;0.30;;;0.30;;
11263;SDS011;5689;48.798;9.070;2024-03-02T06:22:36;0.20;;;0.20;;
11263;SDS011;5689;48.798;9.070;2024-03-02T06:25:04;0.27;;;0.27;;
11263;SDS011;5689;48.798;9.070;2024-03-02T06:27:33;0.30;;;0.30;;
11263;SDS011;5689;48.798;9.070;2024-03-02T06:30:01;0.30;;;0.30;;
11263;SDS011;5689;48.798;9.070;2024-03-02T06:32:30;0.30;;;0.30;;
11263;SDS011;5689;48.798;9.070;2024-03-02T06:34:58;0.30;;;0.30;;
11263;SDS011;5689;48.798;9.070;2024-03-02T06:37:27;0.30;;;0.30;;
11263;SDS011;5689;48.798;9.070;2024-03-02T06:39:57;0.30;;;0.30;;
11263;SDS011;5689;48.798;9.070;2024-03-02T06:42:25;0.30;;;0.30;;
11263;SDS011;5689;48.798;9.070;2024-03-02T06:44:53;0.47;;;0.47;;
11263;SDS011;5689;48.798;9.070;2024-03-02T06:47:22;0.20;;;0.20;;
11263;SDS011;5689;48.798;9.070;2024-03-02T06:49:50;0.20;;;0.20;;
11263;SDS011;5689;48.798;9.070;2024-03-02T06:52:19;0.30;;;0.30;;
11263;SDS011;5689;48.798;9.070;2024-03-02T06:54:50;0.33;;;0.33;;
11263;SDS011;5689;48.798;9.070;2024-03-02T06:57:20;0.30;;;0.30;;
11263;SDS011;5689;48.798;9.070;2024-03-02T06:59:48;0.20;;;0.20;;
11263;SDS011;5689;48.798;9.070;2024-03-02T07:02:20;0.30;;;0.30;;
11263;SDS011;5689;48.798;9.070;2024-03-02T07:04:50;0.20;;;0.20;;
11263;SDS011;5689;48.798;9.070;2024-03-02T07:07:18;0.30;;;0.30;;
11263;SDS011;5689;48.798;9.070;2024-03-02T07:09:47;0.20;;;0.20;;
11263;SDS011;5689;48.798;9.070;2024-03-02T07:12:15;0.30;;;0.30;;
11263;SDS011;5689;48.798;9.070;2024-03-02T07:14:45;0.20;;;0.20;;
11263;SDS011;5689;48.798;9.070;2024-03-02T07:17:37;0.30;;;0.30;;
11263;SDS011;5689;48.798;9.070;2024-03-02T07:20:05;0.20;;;0.20;;
11263;SDS011;5689;48.798;9.070;2024-03-02T07:22:34;0.30;;;0.30;;
11263;SDS011;5689;48.798;9.070;2024-03-02T07:25:05;0.20;;;0.20;;
11263;SDS011;5689;48.798;9.070;2024-03-02T07:27:34;0.20;;;0.20;;
11263;SDS011;5689;48.798;9.070;2024-03-02T07:30:04;0.30;;;0.30;;
11263;SDS011;5689;48.798;9.070;2024-03-02T07:32:32;0.20;;;0.20;;
11263;SDS011;5689;48.798;9.070;2024-03-02T07:35:01;0.30;;;0.30;;
11263;SDS011;5689;48.798;9.070;2024-03-02T07:37:30;0.20;;;0.20;;
11263;SDS011;5689;48.798;9.070;2024-03-02T07:39:58;0.20;;;0.20;;
11263;SDS011;5689;48.798;9.070;2024-03-02T07:42:26;0.30;;;0.30;;
11263;SDS011;5689;48.798;9.070;2024-03-02T07:44:55;0.30;;;0.30;;
11263;SDS011;5689;48.798;9.070;2024-03-02T07:47:25;0.30;;;0.30;;
11263;SDS011;5689;48.798;9.070;2024-03-02T07:49:53;0.20;;;0.20;;
11263;SDS011;5689;48.798;9.070;2024-03-02T07:52:21;0.20;;;0.20;;
11263;SDS011;5689;48.798;9.070;2024-03-02T07:54:49;0.20;;;0.20;;
11263;SDS011;5689;48.798;9.070;2024-03-02T07:57:18;0.20;;;0.20;;
11263;SDS011;5689;48.798;9.070;2024-03-02T07:59:46;0.20;;;0.20;;
11263;SDS011;5689;48.798;9.070;2024-03-02T08:02:15;0.10;;;0.10;;
11263;SDS011;5689;48.798;9.070;2024-03-02T08:04:45;0.20;;;0.20;;
11263;SDS011;5689;48.798;9.070;2024-03-02T08:07:13;0.20;;;0.20;;
11263;SDS011;5689;48.798;9.070;2024-03-02T08:09:42;0.20;;;0.20;;
11263;SDS011;5689;48.798;9.070;2024-03-02T08:12:10;0.30;;;0.30;;
11263;SDS011;5689;48.798;9.070;2024-03-02T08:14:38;0.20;;;0.20;;
11263;SDS011;5689;48.798;9.070;2024-03-02T08:17:06;0.10;;;0.10;;
11263;SDS011;5689;48.798;9.070;2024-03-02T08:19:36;0.10;;;0.10;;
11263;SDS011;5689;48.798;9.070;2024-03-02T08:22:06;0.22;;;0.22;;
11263;SDS011;5689;48.798;9.070;2024-03-02T08:24:34;0.10;;;0.10;;
11263;SDS011;5689;48.798;9.070;2024-03-02T08:27:03;0.10;;;0.10;;
11263;SDS011;5689;48.798;9.070;2024-03-02T08:29:32;0.10;;;0.10;;
11263;SDS011;5689;48.798;9.070;2024-03-02T08:32:00;0.10;;;0.10;;
11263;SDS011;5689;48.798;9.070;2024-03-02T08:34:28;0.10;;;0.10;;
11263;SDS011;5689;48.798;9.070;2024-03-02T08:36:57;0.00;;;0.00;;
11263;SDS011;5689;48.798;9.070;2024-03-02T08:39:26;0.10;;;0.10;;
11263;SDS011;5689;48.798;9.070;2024-03-02T08:41:55;0.15;;;0.15;;
11263;SDS011;5689;48.798;9.070;2024-03-02T08:44:23;0.10;;;0.10;;
11263;SDS011;5689;48.798;9.070;2024-03-02T08:46:51;0.10;;;0.10;;
11263;SDS011;5689;48.798;9.070;2024-03-02T08:49:19;0.10;;;0.10;;
11263;SDS011;5689;48.798;9.070;2024-03-02T08:51:48;0.00;;;0.00;;
11263;SDS011;5689;48.798;9.070;2024-03-02T08:54:21;0.08;;;0.08;;
11263;SDS011;5689;48.798;9.070;2024-03-02T08:56:50;0.10;;;0.10;;
11263;SDS011;5689;48.798;9.070;2024-03-02T08:59:18;0.10;;;0.10;;
11263;SDS011;5689;48.798;9.070;2024-03-02T09:01:46;0.10;;;0.10;;
11263;SDS011;5689;48.798;9.070;2024-03-02T09:04:15;0.15;;;0.15;;
11263;SDS011;5689;48.798;9.070;2024-03-02T09:06:43;0.20;;;0.20;;
11263;SDS011;5689;48.798;9.070;2024-03-02T09:09:11;0.20;;;0.20;;
11263;SDS011;5689;48.798;9.070;2024-03-02T09:11:39;0.10;;;0.10;;
11263;SDS011;5689;48.798;9.070;2024-03-02T09:14:09;0.20;;;0.20;;
11263;SDS011;5689;48.798;9.070;2024-03-02T09:16:37;0.10;;;0.10;;
11263;SDS011;5689;48.798;9.070;2024-03-02T09:19:05;0.10;;;0.10;;
11263;SDS011;5689;48.798;9.070;2024-03-02T09:21:33;0.10;;;0.10;;
11263;SDS011;5689;48.798;9.070;2024-03-02T09:24:02;0.10;;;0.10;;
11263;SDS011;5689;48.798;9.070;2024-03-02T09:26:30;0.20;;;0.20;;
11263;SDS011;5689;48.798;9.070;2024-03-02T09:28:58;0.10;;;0.10;;
11263;SDS011;5689;48.798;9.070;2024-03-02T09:31:28;0.10;;;0.10;;
11263;SDS011;5689;48.798;9.070;2024-03-02T09:33:56;0.10;;;0.10;;
11263;SDS011;5689;48.798;9.070;2024-03-02T09:36:25;0.10;;;0.10;;
11263;SDS011;5689;48.798;9.070;2024-03-02T09:38:53;0.10;;;0.10;;
11263;SDS011;5689;48.798;9.070;2024-03-02T09:41:21;0.10;;;0.10;;
11263;SDS011;5689;48.798;9.070;2024-03-02T09:43:49;0.10;;;0.10;;
11263;SDS011;5689;48.798;9.070;2024-03-02T09:46:18;0.00;;;0.00;;
11263;SDS011;5689;48.798;9.070;2024-03-02T09:48:48;0.10;;;0.10;;
11263;SDS011;5689;48.798;9.070;2024-03-02T09:51:16;0.00;;;0.00;;
11263;SDS011;5689;48.798;9.070;2024-03-02T09:53:46;0.00;;;0.00;;
11263;SDS011;5689;48.798;9.070;2024-03-02T09:56:15;0.10;;;0.10;;
11263;SDS011;5689;48.798;9.070;2024-03-02T09:58:44;0.10;;;0.10;;
11263;SDS011;5689;48.798;9.070;2024-03-02T10:01:12;0.10;;;0.10;;
11263;SDS011;5689;48.798;9.070;2024-03-02T10:03:41;0.10;;;0.10;;
11263;SDS011;5689;48.798;9.070;2024-03-02T10:06:23;0.10;;;0.10;;
11263;SDS011;5689;48.798;9.070;2024-03-02T10:08:52;0.10;;;0.10;;
11263;SDS011;5689;48.798;9.070;2024-03-02T10:11:28;0.10;;;0.10;;
11263;SDS011;5689;48.798;9.070;2024-03-02T10:14:05;0.10;;;0.10;;
11263;SDS011;5689;48.798;9.070;2024-03-02T11:08:50;0.00;;;0.00;;
11263;SDS011;5689;48.798;9.070;2024-03-02T11:11:27;0.00;;;0.00;;
11263;SDS011;5689;48.798;9.070;2024-03-02T11:13:57;0.10;;;0.10;;
11263;SDS011;5689;48.798;9.070;2024-03-02T11:16:34;0.10;;;0.10;;
11263;SDS011;5689;48.798;9.070;2024-03-02T11:19:05;0.10;;;0.10;;
11263;SDS011;5689;48.798;9.070;2024-03-02T11:21:36;0.10;;;0.10;;
11263;SDS011;5689;48.798;9.070;2024-03-02T11:27:02;0.00;;;0.00;;
11263;SDS011;5689;48.798;9.070;2024-03-02T11:29:43;0.00;;;0.00;;
11263;SDS011;5689;48.798;9.070;2024-03-02T11:32:19;0.00;;;0.00;;
11263;SDS011;5689;48.798;9.070;2024-03-02T11:34:49;0.10;;;0.10;;
11263;SDS011;5689;48.798;9.070;2024-03-02T11:37:19;0.00;;;0.00;;
11263;SDS011;5689;48.798;9.070;2024-03-02T11:39:49;0.00;;;0.00;;
11263;SDS011;5689;48.798;9.070;2024-03-02T11:42:18;0.00;;;0.00;;
11263;SDS011;5689;48.798;9.070;2024-03-02T11:44:46;0.00;;;0.00;;
11263;SDS011;5689;48.798;9.070;2024-03-02T11:47:16;0.00;;;0.00;;
11263;SDS011;5689;48.798;9.070;2024-03-02T11:49:45;0.10;;;0.10;;
11263;SDS011;5689;48.798;9.070;2024-03-02T11:52:16;0.10;;;0.10;;
11263;SDS011;5689;48.798;9.070;2024-03-02T11:54:46;0.10;;;0.10;;
11263;SDS011;5689;48.798;9.070;2024-03-02T11:57:17;0.10;;;0.10;;
11263;SDS011;5689;48.798;9.070;2024-03-02T11:59:47;0.10;;;0.10;;
11263;SDS011;5689;48.798;9.070;2024-03-02T12:02:16;0.10;;;0.10;;
11263;SDS011;5689;48.798;9.070;2024-03-02T12:04:46;0.10;;;0.10;;
11263;SDS011;5689;48.798;9.070;2024-03-02T12:07:18;0.00;;;0.00;;
11263;SDS011;5689;48.798;9.070;2024-03-02T12:09:48;0.10;;;0.10;;
11263;SDS011;5689;48.798;9.070;2024-03-02T12:12:18;0.10;;;0.10;;
11263;SDS011;5689;48.798;9.070;2024-03-02T12:14:52;0.10;;;0.10;;
11263;SDS011;5689;48.798;9.070;2024-03-02T12:17:21;0.10;;;0.10;;
11263;SDS011;5689;48.798;9.070;2024-03-02T12:19:49;0.10;;;0.10;;
11263;SDS011;5689;48.798;9.070;2024-03-02T12:22:18;0.10;;;0.10;;
11263;SDS011;5689;48.798;9.070;2024-03-02T12:24:46;0.10;;;0.10;;
11263;SDS011;5689;48.798;9.070;2024-03-02T12:27:14;0.10;;;0.10;;
11263;SDS011;5689;48.798;9.070;2024-03-02T12:29:44;0.10;;;0.10;;
11263;SDS011;5689;48.798;9.070;2024-03-02T12:32:12;0.10;;;0.10;;
11263;SDS011;5689;48.798;9.070;2024-03-02T12:34:42;0.10;;;0.10;;
11263;SDS011;5689;48.798;9.070;2024-03-02T12:37:11;0.10;;;0.10;;
11263;SDS011;5689;48.798;9.070;2024-03-02T12:39:39;0.00;;;0.00;;
11263;SDS011;5689;48.798;9.070;2024-03-02T12:42:12;0.00;;;0.00;;
11263;SDS011;5689;48.798;9.070;2024-03-02T12:44:39;0.00;;;0.00;;
11263;SDS011;5689;48.798;9.070;2024-03-02T12:47:09;0.00;;;0.00;;
11263;SDS011;5689;48.798;9.070;2024-03-02T12:49:39;0.00;;;0.00;;
11263;SDS011;5689;48.798;9.070;2024-03-02T12:52:07;0.10;;;0.10;;
11263;SDS011;5689;48.798;9.070;2024-03-02T12:54:36;0.00;;;0.00;;
11263;SDS011;5689;48.798;9.070;2024-03-02T12:57:04;0.00;;;0.00;;
11263;SDS011;5689;48.798;9.070;2024-03-02T12:59:32;0.10;;;0.10;;
11263;SDS011;5689;48.798;9.070;2024-03-02T13:02:00;0.10;;;0.10;;
11263;SDS011;5689;48.798;9.070;2024-03-02T13:04:29;0.10;;;0.10;;
11263;SDS011;5689;48.798;9.070;2024-03-02T13:06:57;0.00;;;0.00;;
11263;SDS011;5689;48.798;9.070;2024-03-02T13:09:26;0.00;;;0.00;;
11263;SDS011;5689;48.798;9.070;2024-03-02T13:11:54;0.10;;;0.10;;
11263;SDS011;5689;48.798;9.070;2024-03-02T13:14:23;0.10;;;0.10;;
11263;SDS011;5689;48.798;9.070;2024-03-02T13:16:52;0.10;;;0.10;;
11263;SDS011;5689;48.798;9.070;2024-03-02T13:19:20;0.00;;;0.00;;
11263;SDS011;5689;48.798;9.070;2024-03-02T13:21:49;0.00;;;0.00;;
11263;SDS011;5689;48.798;9.070;2024-03-02T13:24:17;0.08;;;0.08;;
11263;SDS011;5689;48.798;9.070;2024-03-02T13:26:46;0.10;;;0.10;;
11263;SDS011;5689;48.798;9.070;2024-03-02T13:29:14;0.00;;;0.00;;
11263;SDS011;5689;48.798;9.070;2024-03-02T13:31:42;0.00;;;0.00;;
11263;SDS011;5689;48.798;9.070;2024-03-02T13:34:10;0.00;;;0.00;;
11263;SDS011;5689;48.798;9.070;2024-03-02T13:36:38;0.10;;;0.10;;
11263;SDS011;5689;48.798;9.070;2024-03-02T13:39:08;0.10;;;0.10;;
11263;SDS011;5689;48.798;9.070;2024-03-02T13:41:36;0.10;;;0.10;;
11263;SDS011;5689;48.798;9.070;2024-03-02T13:44:04;0.10;;;0.10;;
11263;SDS011;5689;48.798;9.070;2024-03-02T13:46:33;0.10;;;0.10;;
11263;SDS011;5689;48.798;9.070;2024-03-02T13:49:01;0.00;;;0.00;;
11263;SDS011;5689;48.798;9.070;2024-03-02T13:51:30;0.10;;;0.10;;
11263;SDS011;5689;48.798;9.070;2024-03-02T13:53:59;0.00;;;0.00;;
11263;SDS011;5689;48.798;9.070;2024-03-02T13:56:30;0.00;;;0.00;;
11263;SDS011;5689;48.798;9.070;2024-03-02T13:58:59;0.05;;;0.05;;
11263;SDS011;5689;48.798;9.070;2024-03-02T14:01:27;0.00;;;0.00;;
11263;SDS011;5689;48.798;9.070;2024-03-02T14:03:55;0.00;;;0.00;;
11263;SDS011;5689;48.798;9.070;2024-03-02T14:06:24;0.00;;;0.00;;
11263;SDS011;5689;48.798;9.070;2024-03-02T14:08:53;0.00;;;0.00;;
11263;SDS011;5689;48.798;9.070;2024-03-02T14:11:21;0.00;;;0.00;;
11263;SDS011;5689;48.798;9.070;2024-03-02T14:13:50;0.00;;;0.00;;
11263;SDS011;5689;48.798;9.070;2024-03-02T14:16:20;0.00;;;0.00;;
11263;SDS011;5689;48.798;9.070;2024-03-02T14:18:49;0.00;;;0.00;;
11263;SDS011;5689;48.798;9.070;2024-03-02T14:21:17;0.00;;;0.00;;
11263;SDS011;5689;48.798;9.070;2024-03-02T14:23:45;0.00;;;0.00;;
11263;SDS011;5689;48.798;9.070;2024-03-02T14:26:13;0.00;;;0.00;;
11263;SDS011;5689;48.798;9.070;2024-03-02T14:28:41;0.00;;;0.00;;
11263;SDS011;5689;48.798;9.070;2024-03-02T14:31:13;0.00;;;0.00;;
11263;SDS011;5689;48.798;9.070;2024-03-02T14:33:42;0.10;;;0.10;;
11263;SDS011;5689;48.798;9.070;2024-03-02T14:36:10;0.00;;;0.00;;
11263;SDS011;5689;48.798;9.070;2024-03-02T14:38:38;0.00;;;0.00;;
11263;SDS011;5689;48.798;9.070;2024-03-02T14:41:06;0.00;;;0.00;;
11263;SDS011;5689;48.798;9.070;2024-03-02T14:43:34;0.00;;;0.00;;
11263;SDS011;5689;48.798;9.070;2024-03-02T14:46:03;0.00;;;0.00;;
11263;SDS011;5689;48.798;9.070;2024-03-02T14:48:34;0.00;;;0.00;;
11263;SDS011;5689;48.798;9.070;2024-03-02T14:51:02;0.00;;;0.00;;
11263;SDS011;5689;48.798;9.070;2024-03-02T14:53:31;0.05;;;0.05;;
11263;SDS011;5689;48.798;9.070;2024-03-02T14:55:59;0.00;;;0.00;;
11263;SDS011;5689;48.798;9.070;2024-03-02T14:58:30;0.00;;;0.00;;
11263;SDS011;5689;48.798;9.070;2024-03-02T15:00:58;0.00;;;0.00;;
11263;SDS011;5689;48.798;9.070;2024-03-02T15:03:26;0.00;;;0.00;;
11263;SDS011;5689;48.798;9.070;2024-03-02T15:05:55;0.00;;;0.00;;
11263;SDS011;5689;48.798;9.070;2024-03-02T15:08:24;0.08;;;0.08;;
11263;SDS011;5689;48.798;9.070;2024-03-02T15:10:52;0.03;;;0.03;;
11263;SDS011;5689;48.798;9.070;2024-03-02T15:13:22;0.00;;;0.00;;
11263;SDS011;5689;48.798;9.070;2024-03-02T15:15:51;0.10;;;0.10;;
11263;SDS011;5689;48.798;9.070;2024-03-02T15:18:19;0.10;;;0.10;;
11263;SDS011;5689;48.798;9.070;2024-03-02T15:20:47;0.10;;;0.10;;
11263;SDS011;5689;48.798;9.070;2024-03-02T15:23:16;0.10;;;0.10;;
11263;SDS011;5689;48.798;9.070;2024-03-02T15:25:47;0.10;;;0.10;;
11263;SDS011;5689;48.798;9.070;2024-03-02T15:28:15;0.10;;;0.10;;
11263;SDS011;5689;48.798;9.070;2024-03-02T15:30:43;0.10;;;0.10;;
11263;SDS011;5689;48.798;9.070;2024-03-02T15:33:11;0.10;;;0.10;;
11263;SDS011;5689;48.798;9.070;2024-03-02T15:35:39;0.10;;;0.10;;
11263;SDS011;5689;48.798;9.070;2024-03-02T15:38:07;0.10;;;0.10;;
11263;SDS011;5689;48.798;9.070;2024-03-02T15:40:41;0.10;;;0.10;;
11263;SDS011;5689;48.798;9.070;2024-03-02T15:43:09;0.10;;;0.10;;
11263;SDS011;5689;48.798;9.070;2024-03-02T15:45:40;0.10;;;0.10;;
11263;SDS011;5689;48.798;9.070;2024-03-02T15:48:08;0.10;;;0.10;;
11263;SDS011;5689;48.798;9.070;2024-03-02T15:50:36;0.10;;;0.10;;
11263;SDS011;5689;48.798;9.070;2024-03-02T15:53:04;0.10;;;0.10;;
11263;SDS011;5689;48.798;9.070;2024-03-02T15:55:33;0.10;;;0.10;;
11263;SDS011;5689;48.798;9.070;2024-03-02T15:58:03;0.10;;;0.10;;
11263;SDS011;5689;48.798;9.070;2024-03-02T16:00:32;0.17;;;0.17;;
11263;SDS011;5689;48.798;9.070;2024-03-02T16:03:01;0.10;;;0.10;;
11263;SDS011;5689;48.798;9.070;2024-03-02T16:05:29;0.10;;;0.10;;
11263;SDS011;5689;48.798;9.070;2024-03-02T16:07:57;0.10;;;0.10;;